Time;durP1;ratioP1;P1;durP2;ratioP2;P2;SDS_P1;SDS_P2;PMS_P1;PMS_P2;Temp;Humidity;BMP_temperature;BMP_pressure;BME280_temperature;BME280_humidity;BME280_pressure;Samples;Min_cycle;Max_cycle;Signal;HPM_P1;HPM_P2
2023/04/13 00:00:29;;;;;;;3.30;0.40;;;9.00;33.20;;;;;;5084687;28;20481;-67
2023/04/13 00:02:57;;;;;;;4.10;0.40;;;8.90;33.50;;;;;;5085848;28;20490;-67
2023/04/13 00:05:24;;;;;;;3.90;0.60;;;8.90;33.50;;;;;;5081177;28;20457;-68
2023/04/13 00:07:51;;;;;;;3.60;0.53;;;8.90;33.10;;;;;;5086131;28;20488;-67
2023/04/13 00:10:19;;;;;;;3.73;0.70;;;8.80;33.20;;;;;;5083034;28;20475;-67
2023/04/13 00:12:47;;;;;;;4.03;0.60;;;8.70;32.70;;;;;;5084671;28;20467;-67
2023/04/13 00:15:15;;;;;;;5.10;0.50;;;8.70;32.60;;;;;;5077802;28;20504;-67
2023/04/13 00:17:42;;;;;;;3.60;0.57;;;8.60;32.40;;;;;;5082278;28;20456;-67
2023/04/13 00:20:14;;;;;;;3.87;0.47;;;8.60;32.30;;;;;;5089831;28;20512;-67
2023/04/13 00:22:41;;;;;;;3.30;0.40;;;8.50;32.40;;;;;;5087247;28;20460;-67
2023/04/13 00:25:10;;;;;;;3.30;0.40;;;8.50;32.20;;;;;;5082842;28;21001;-67
2023/04/13 00:27:38;;;;;;;3.53;0.40;;;8.50;32.20;;;;;;5085500;28;20472;-67
2023/04/13 00:30:06;;;;;;;4.03;0.50;;;8.50;32.30;;;;;;5080911;28;20473;-67
2023/04/13 00:32:33;;;;;;;3.77;0.43;;;8.40;32.20;;;;;;5083454;28;20848;-67
2023/04/13 00:35:02;;;;;;;5.20;0.70;;;8.40;32.30;;;;;;5079066;28;20471;-67
2023/04/13 00:37:31;;;;;;;5.13;0.50;;;8.40;32.20;;;;;;5092698;22;20492;-68
2023/04/13 00:39:58;;;;;;;3.27;0.40;;;8.40;32.50;;;;;;5103227;28;21010;-68
2023/04/13 00:42:25;;;;;;;3.90;0.50;;;8.40;32.50;;;;;;5095074;28;20470;-68
2023/04/13 00:44:52;;;;;;;3.53;0.57;;;8.40;32.30;;;;;;5101474;28;20482;-69
2023/04/13 00:47:25;;;;;;;3.30;0.30;;;8.40;32.30;;;;;;5099454;28;20802;-69
2023/04/13 00:49:52;;;;;;;3.60;0.60;;;8.30;32.50;;;;;;5105645;28;20703;-68
2023/04/13 00:52:20;;;;;;;3.83;0.50;;;8.30;32.60;;;;;;5099328;28;20546;-69
2023/04/13 00:54:48;;;;;;;3.80;0.50;;;8.30;32.50;;;;;;5104128;28;20463;-68
2023/04/13 00:57:16;;;;;;;3.70;0.60;;;8.30;32.60;;;;;;5102014;28;20467;-68
2023/04/13 00:59:43;;;;;;;3.40;0.40;;;8.30;32.60;;;;;;5099457;28;20483;-68
2023/04/13 01:02:09;;;;;;;3.37;0.50;;;8.30;32.60;;;;;;5100745;28;20468;-68
2023/04/13 01:04:37;;;;;;;3.53;0.60;;;8.20;32.70;;;;;;5100272;28;20483;-68
2023/04/13 01:07:09;;;;;;;3.23;0.40;;;8.20;32.80;;;;;;5093329;28;20498;-69
2023/04/13 01:09:41;;;;;;;4.53;0.67;;;8.20;32.90;;;;;;5095258;28;20497;-69
2023/04/13 01:12:16;;;;;;;3.50;0.50;;;8.20;32.60;;;;;;5091600;28;20471;-69
2023/04/13 01:14:48;;;;;;;3.53;0.50;;;8.20;33.00;;;;;;5101529;28;20451;-69
2023/04/13 01:17:21;;;;;;;3.60;0.60;;;8.10;32.80;;;;;;5096424;28;20540;-69
2023/04/13 01:19:55;;;;;;;4.87;0.90;;;8.10;32.90;;;;;;5100905;28;20850;-69
2023/04/13 01:22:26;;;;;;;3.90;0.70;;;8.10;33.10;;;;;;5098104;28;20459;-69
2023/04/13 01:25:06;;;;;;;3.30;0.40;;;8.10;33.00;;;;;;5095402;28;20658;-69
2023/04/13 01:27:45;;;;;;;4.00;0.50;;;8.00;33.00;;;;;;5094580;28;20447;-69
2023/04/13 01:30:14;;;;;;;4.03;0.50;;;8.00;33.10;;;;;;5101246;28;20500;-69
2023/04/13 01:32:42;;;;;;;3.50;0.50;;;7.90;33.10;;;;;;5098888;28;20468;-68
2023/04/13 01:35:09;;;;;;;3.60;0.70;;;7.90;33.20;;;;;;5094347;28;20499;-69
2023/04/13 01:37:37;;;;;;;4.43;0.63;;;7.90;33.30;;;;;;5096751;28;20483;-69
2023/04/13 01:40:11;;;;;;;3.63;0.80;;;7.80;33.40;;;;;;5102657;28;20482;-69
2023/04/13 01:42:40;;;;;;;4.13;0.70;;;7.80;33.60;;;;;;5097971;28;20454;-69
2023/04/13 01:45:11;;;;;;;4.83;0.50;;;7.80;33.50;;;;;;5097484;28;20858;-69
2023/04/13 01:47:40;;;;;;;3.50;0.63;;;7.80;33.70;;;;;;5097399;28;20455;-68
2023/04/13 01:50:14;;;;;;;3.77;0.53;;;7.80;33.50;;;;;;5097172;28;21037;-70
2023/04/13 01:52:43;;;;;;;3.47;0.50;;;7.80;33.70;;;;;;5103601;28;20501;-69
2023/04/13 01:55:11;;;;;;;3.90;0.53;;;7.80;33.90;;;;;;5101009;28;20458;-69
2023/04/13 01:57:44;;;;;;;3.30;0.40;;;7.70;34.10;;;;;;5099226;28;20874;-68
2023/04/13 02:00:14;;;;;;;3.50;0.50;;;7.70;34.10;;;;;;5102822;28;20990;-68
2023/04/13 02:02:40;;;;;;;3.47;0.50;;;7.70;34.10;;;;;;5101208;28;20471;-68
2023/04/13 02:05:09;;;;;;;3.40;0.60;;;7.70;34.00;;;;;;5103572;28;20513;-69
2023/04/13 02:07:37;;;;;;;3.40;0.53;;;7.70;34.20;;;;;;5093351;28;20462;-69
2023/04/13 02:10:05;;;;;;;4.67;0.60;;;7.80;34.00;;;;;;5102455;27;20493;-69
2023/04/13 02:12:33;;;;;;;3.40;0.60;;;7.80;34.10;;;;;;5103978;28;20463;-68
2023/04/13 02:15:01;;;;;;;3.80;0.50;;;7.70;34.20;;;;;;5107359;28;20528;-68
2023/04/13 02:17:28;;;;;;;3.30;0.40;;;7.70;34.50;;;;;;5099637;27;20486;-69
2023/04/13 02:19:55;;;;;;;3.70;0.43;;;7.70;34.50;;;;;;5099560;28;20514;-67
2023/04/13 02:22:22;;;;;;;3.40;0.50;;;7.80;34.50;;;;;;5097623;28;20598;-67
2023/04/13 02:24:50;;;;;;;3.70;0.80;;;7.80;34.40;;;;;;5105517;28;20479;-69
2023/04/13 02:27:17;;;;;;;3.20;0.40;;;7.80;34.50;;;;;;5103585;28;20486;-68
2023/04/13 02:29:43;;;;;;;4.03;0.70;;;7.80;34.70;;;;;;5098203;28;20475;-67
2023/04/13 02:32:12;;;;;;;3.50;0.67;;;7.80;34.70;;;;;;5102877;27;20467;-67
2023/04/13 02:34:38;;;;;;;3.97;0.50;;;7.80;34.70;;;;;;5105126;28;20505;-67
2023/04/13 02:37:07;;;;;;;3.40;0.50;;;7.90;34.90;;;;;;5106517;28;20459;-67
2023/04/13 02:39:33;;;;;;;4.00;0.40;;;7.90;34.90;;;;;;5096273;28;20728;-67
2023/04/13 02:42:01;;;;;;;4.07;0.67;;;7.80;34.90;;;;;;5101418;28;20828;-67
2023/04/13 02:44:27;;;;;;;3.40;0.50;;;7.80;35.00;;;;;;5100722;28;20558;-69
2023/04/13 02:46:54;;;;;;;3.40;0.60;;;7.90;35.30;;;;;;5106619;28;20903;-67
2023/04/13 02:49:22;;;;;;;3.50;0.73;;;7.90;35.40;;;;;;5104111;28;20562;-68
2023/04/13 02:51:49;;;;;;;3.50;0.80;;;7.90;35.20;;;;;;5099218;28;20461;-68
2023/04/13 02:54:16;;;;;;;4.00;0.53;;;7.90;35.50;;;;;;5100659;28;20460;-68
2023/04/13 02:56:43;;;;;;;4.10;0.70;;;7.90;35.40;;;;;;5103977;28;20540;-68
2023/04/13 02:59:10;;;;;;;3.50;0.50;;;7.90;35.50;;;;;;5096844;28;20534;-68
2023/04/13 03:01:38;;;;;;;4.70;1.00;;;7.90;35.70;;;;;;5098579;28;21110;-68
2023/04/13 03:04:05;;;;;;;3.70;0.80;;;7.80;36.10;;;;;;5102228;28;20472;-69
2023/04/13 03:06:33;;;;;;;5.67;2.40;;;7.80;36.20;;;;;;5098078;28;20897;-68
2023/04/13 03:09:00;;;;;;;4.00;0.80;;;7.80;36.00;;;;;;5102699;28;20494;-68
2023/04/13 03:11:27;;;;;;;5.83;1.00;;;7.70;36.30;;;;;;5096323;28;20541;-68
2023/04/13 03:13:56;;;;;;;4.73;0.67;;;7.70;36.50;;;;;;5097672;28;20956;-68
2023/04/13 03:16:23;;;;;;;3.63;1.00;;;7.70;36.50;;;;;;5100657;28;20462;-68
2023/04/13 03:18:51;;;;;;;3.80;0.70;;;7.70;36.50;;;;;;5100630;28;20503;-68
2023/04/13 03:21:17;;;;;;;4.20;0.90;;;7.70;36.70;;;;;;5099413;28;20524;-68
2023/04/13 03:23:46;;;;;;;3.57;0.90;;;7.60;36.70;;;;;;5104288;28;20976;-68
2023/04/13 03:26:12;;;;;;;5.00;1.30;;;7.70;36.80;;;;;;5085671;28;20980;-68
2023/04/13 03:28:39;;;;;;;3.50;0.80;;;7.70;36.70;;;;;;5094963;28;20491;-68
2023/04/13 03:31:06;;;;;;;4.53;1.67;;;7.70;36.50;;;;;;5093931;27;21224;-69
2023/04/13 03:33:32;;;;;;;3.80;1.00;;;7.70;36.50;;;;;;5094601;28;20524;-68
2023/04/13 03:35:59;;;;;;;4.13;0.97;;;7.70;36.30;;;;;;5095163;28;20464;-68
2023/04/13 03:38:26;;;;;;;4.30;0.80;;;7.70;36.40;;;;;;5093893;28;20476;-68
2023/04/13 03:40:54;;;;;;;6.83;0.90;;;7.70;36.60;;;;;;5095676;28;20460;-68
2023/04/13 03:43:21;;;;;;;4.30;0.80;;;7.60;36.60;;;;;;5092452;28;20460;-68
2023/04/13 03:45:47;;;;;;;6.63;1.07;;;7.60;36.40;;;;;;5093205;28;20483;-68
2023/04/13 03:48:14;;;;;;;3.97;1.10;;;7.60;36.50;;;;;;5102655;28;20459;-68
2023/04/13 03:50:41;;;;;;;5.13;1.00;;;7.60;36.40;;;;;;5105339;27;20463;-66
2023/04/13 03:53:07;;;;;;;4.80;0.80;;;7.60;36.50;;;;;;5094966;28;21035;-66
2023/04/13 03:55:34;;;;;;;5.73;1.00;;;7.60;36.60;;;;;;5094089;27;20460;-68
2023/04/13 03:58:02;;;;;;;6.43;1.20;;;7.60;36.60;;;;;;5099208;27;20464;-68
2023/04/13 04:00:29;;;;;;;6.40;0.90;;;7.60;36.70;;;;;;5095373;27;20486;-68
2023/04/13 04:02:56;;;;;;;4.00;1.37;;;7.50;36.60;;;;;;5093705;28;20470;-69
2023/04/13 04:05:23;;;;;;;4.50;1.20;;;7.50;36.50;;;;;;5087699;28;20502;-67
2023/04/13 04:07:49;;;;;;;4.70;1.00;;;7.50;36.40;;;;;;5095432;27;20464;-68
2023/04/13 04:10:18;;;;;;;3.80;0.90;;;7.50;36.40;;;;;;5101087;28;20495;-67
2023/04/13 04:12:44;;;;;;;4.00;1.00;;;7.50;36.40;;;;;;5103908;28;21006;-67
2023/04/13 04:15:13;;;;;;;4.20;1.10;;;7.40;36.30;;;;;;5105493;27;20537;-67
2023/04/13 04:17:39;;;;;;;4.83;1.10;;;7.40;36.40;;;;;;5102661;27;20467;-68
2023/04/13 04:20:09;;;;;;;4.13;1.00;;;7.40;36.40;;;;;;5099205;28;21132;-67
2023/04/13 04:22:36;;;;;;;5.20;1.40;;;7.30;36.50;;;;;;5101416;27;20820;-67
2023/04/13 04:25:03;;;;;;;4.20;1.13;;;7.30;36.70;;;;;;5089872;28;20476;-66
2023/04/13 04:27:36;;;;;;;6.17;1.37;;;7.30;36.70;;;;;;5095521;28;20472;-65
2023/04/13 04:30:04;;;;;;;4.73;1.13;;;7.30;36.90;;;;;;5098805;28;20907;-66
2023/04/13 04:32:33;;;;;;;5.20;1.27;;;7.30;37.00;;;;;;5093369;28;20471;-66
2023/04/13 04:35:02;;;;;;;6.57;1.20;;;7.30;36.90;;;;;;5096277;28;20492;-67
2023/04/13 04:37:36;;;;;;;5.07;1.20;;;7.30;37.00;;;;;;5101337;28;20823;-67
2023/04/13 04:40:06;;;;;;;4.10;1.20;;;7.30;36.80;;;;;;5102260;27;20516;-67
2023/04/13 04:42:33;;;;;;;5.83;1.80;;;7.30;36.80;;;;;;5093197;28;20467;-67
2023/04/13 04:45:00;;;;;;;4.77;1.33;;;7.30;36.70;;;;;;5103846;27;20506;-67
2023/04/13 04:47:29;;;;;;;4.57;1.10;;;7.30;36.50;;;;;;5101288;28;20459;-67
2023/04/13 04:49:57;;;;;;;6.10;1.00;;;7.30;36.50;;;;;;5094299;28;20593;-67
2023/04/13 04:52:24;;;;;;;8.20;1.30;;;7.30;36.40;;;;;;5099696;28;20881;-67
2023/04/13 04:54:51;;;;;;;5.63;1.50;;;7.30;36.30;;;;;;5098879;28;20452;-67
2023/04/13 04:57:18;;;;;;;4.37;1.20;;;7.30;35.90;;;;;;5102929;28;20488;-67
2023/04/13 04:59:45;;;;;;;4.83;1.20;;;7.30;35.80;;;;;;5108300;27;20479;-67
2023/04/13 05:02:12;;;;;;;4.53;1.10;;;7.30;35.80;;;;;;5099127;28;20475;-67
2023/04/13 05:04:40;;;;;;;5.27;1.47;;;7.30;35.70;;;;;;5097001;28;20483;-67
2023/04/13 05:07:09;;;;;;;4.13;1.07;;;7.30;35.50;;;;;;5095727;28;20768;-67
2023/04/13 05:09:37;;;;;;;4.53;1.17;;;7.30;35.40;;;;;;5090090;28;20547;-67
2023/04/13 05:12:04;;;;;;;4.70;1.40;;;7.30;35.10;;;;;;5099453;28;20518;-67
2023/04/13 05:14:31;;;;;;;5.03;1.43;;;7.30;35.40;;;;;;5094833;28;20459;-67
2023/04/13 05:16:57;;;;;;;9.13;1.20;;;7.30;35.30;;;;;;5097968;28;20859;-68
2023/04/13 05:19:24;;;;;;;5.77;1.27;;;7.30;35.10;;;;;;5095815;28;20464;-67
2023/04/13 05:21:51;;;;;;;5.37;0.83;;;7.40;34.90;;;;;;5098032;28;21130;-67
2023/04/13 05:24:19;;;;;;;6.77;1.00;;;7.40;34.40;;;;;;5093033;28;20624;-68
2023/04/13 05:26:46;;;;;;;6.00;1.40;;;7.40;34.20;;;;;;5098643;28;21051;-67
2023/04/13 05:29:13;;;;;;;5.80;1.10;;;7.40;34.20;;;;;;5097018;28;20479;-67
2023/04/13 05:31:40;;;;;;;6.57;1.07;;;7.50;34.10;;;;;;5094695;27;20498;-67
2023/04/13 05:34:06;;;;;;;6.47;1.20;;;7.50;33.90;;;;;;5105959;27;20943;-67
2023/04/13 05:36:33;;;;;;;5.30;1.17;;;7.60;33.70;;;;;;5101008;27;20485;-67
2023/04/13 05:39:03;;;;;;;6.47;1.50;;;7.60;33.00;;;;;;5101900;28;20479;-67
2023/04/13 05:41:32;;;;;;;8.77;1.87;;;7.70;32.30;;;;;;5100370;28;20463;-67
2023/04/13 05:43:59;;;;;;;6.63;1.43;;;7.80;31.50;;;;;;5098763;28;20863;-67
2023/04/13 05:46:26;;;;;;;6.20;1.43;;;7.80;31.10;;;;;;5096601;28;20479;-67
2023/04/13 05:48:53;;;;;;;4.43;1.03;;;7.90;30.60;;;;;;5099990;28;20490;-67
2023/04/13 05:51:20;;;;;;;5.17;1.30;;;7.90;30.40;;;;;;5109907;28;20498;-67
2023/04/13 05:53:47;;;;;;;7.23;2.40;;;7.90;30.00;;;;;;5093571;28;20471;-67
2023/04/13 05:56:13;;;;;;;8.70;1.40;;;7.90;30.00;;;;;;5100773;28;20467;-68
2023/04/13 05:58:41;;;;;;;7.37;1.50;;;7.90;29.80;;;;;;5096694;28;20484;-67
2023/04/13 06:01:11;;;;;;;4.73;0.73;;;8.00;29.40;;;;;;5101069;28;20987;-67
2023/04/13 06:03:37;;;;;;;13.57;1.50;;;8.10;29.30;;;;;;5095755;28;20471;-67
2023/04/13 06:06:04;;;;;;;6.80;1.10;;;8.20;28.70;;;;;;5096023;27;20478;-67
2023/04/13 06:08:32;;;;;;;4.53;0.80;;;8.30;28.70;;;;;;5096928;28;20475;-67
2023/04/13 06:10:58;;;;;;;7.73;1.50;;;8.40;28.50;;;;;;5103528;28;20549;-67
2023/04/13 06:13:26;;;;;;;7.90;1.53;;;8.50;27.90;;;;;;5094322;27;20465;-67
2023/04/13 06:15:54;;;;;;;5.80;1.03;;;8.60;26.80;;;;;;5102910;28;20487;-67
2023/04/13 06:18:21;;;;;;;5.47;1.30;;;8.70;26.90;;;;;;5093530;28;20459;-67
2023/04/13 06:20:48;;;;;;;6.73;1.37;;;8.80;26.70;;;;;;5100046;28;20467;-69
2023/04/13 06:23:15;;;;;;;5.30;1.13;;;8.90;26.10;;;;;;5103726;28;20724;-68
2023/04/13 06:25:41;;;;;;;7.50;1.07;;;8.90;26.10;;;;;;5095407;28;20483;-68
2023/04/13 06:28:08;;;;;;;6.60;1.30;;;9.00;26.00;;;;;;5094660;28;20868;-68
2023/04/13 06:30:36;;;;;;;4.43;1.30;;;9.00;25.20;;;;;;5101073;28;20462;-68
2023/04/13 06:33:04;;;;;;;6.07;1.10;;;9.00;25.10;;;;;;5099136;28;21001;-68
2023/04/13 06:35:32;;;;;;;6.80;0.87;;;9.00;24.70;;;;;;5099097;28;20456;-68
2023/04/13 06:38:01;;;;;;;5.10;1.63;;;9.10;24.70;;;;;;5110361;28;20950;-67
2023/04/13 06:40:30;;;;;;;10.50;1.50;;;9.20;24.20;;;;;;5105119;28;20978;-68
2023/04/13 06:42:58;;;;;;;7.80;1.00;;;9.40;23.30;;;;;;5095747;28;20463;-67
2023/04/13 06:45:24;;;;;;;6.00;1.47;;;9.50;23.30;;;;;;5094242;28;20499;-69
2023/04/13 06:47:53;;;;;;;3.90;1.07;;;9.60;22.10;;;;;;5100037;28;20459;-68
2023/04/13 06:50:21;;;;;;;4.67;0.80;;;9.70;21.90;;;;;;5098038;28;20502;-69
2023/04/13 06:52:48;;;;;;;4.33;0.87;;;9.70;21.00;;;;;;5100191;28;21078;-68
2023/04/13 06:55:16;;;;;;;8.50;1.17;;;9.70;20.70;;;;;;5107631;28;20530;-68
2023/04/13 06:57:43;;;;;;;4.57;0.97;;;9.80;20.00;;;;;;5101463;28;20481;-67
2023/04/13 07:00:13;;;;;;;7.33;1.20;;;9.80;20.10;;;;;;5099521;28;20475;-68
2023/04/13 07:05:18;;;;;;;5.73;1.50;;;9.80;20.20;;;;;;5060254;28;20856;-67
2023/04/13 07:07:46;;;;;;;4.67;1.03;;;9.80;20.10;;;;;;5066185;28;20540;-67
2023/04/13 07:10:13;;;;;;;6.80;1.13;;;9.90;20.00;;;;;;5046838;28;20845;-67
2023/04/13 07:12:39;;;;;;;8.40;1.03;;;9.90;19.80;;;;;;5047428;28;20862;-67
2023/04/13 07:15:08;;;;;;;4.90;1.13;;;10.00;19.20;;;;;;5045397;28;20822;-67
2023/04/13 07:17:35;;;;;;;7.07;1.53;;;10.00;18.90;;;;;;5039902;28;20473;-67
2023/04/13 07:20:03;;;;;;;4.83;1.10;;;10.00;18.80;;;;;;5042764;28;20488;-67
2023/04/13 07:22:31;;;;;;;4.70;1.37;;;10.00;19.20;;;;;;5035887;28;20867;-67
2023/04/13 07:24:59;;;;;;;5.13;0.83;;;10.10;18.50;;;;;;5041454;28;20486;-67
2023/04/13 07:27:26;;;;;;;4.03;1.00;;;10.00;18.30;;;;;;5041240;28;20463;-68
2023/04/13 07:29:53;;;;;;;9.30;1.30;;;10.10;18.80;;;;;;5043896;28;20513;-68
2023/04/13 07:32:20;;;;;;;5.47;1.20;;;10.10;19.10;;;;;;5046559;28;20547;-68
2023/04/13 07:34:47;;;;;;;8.40;1.40;;;10.10;18.60;;;;;;5048514;28;20469;-67
2023/04/13 07:37:14;;;;;;;5.90;0.90;;;10.10;18.20;;;;;;5041879;28;20463;-67
2023/04/13 07:39:42;;;;;;;6.07;1.70;;;10.20;17.80;;;;;;5038047;28;20572;-68
2023/04/13 07:42:10;;;;;;;4.07;0.70;;;10.10;17.10;;;;;;5040978;28;20466;-68
2023/04/13 07:44:36;;;;;;;9.20;1.53;;;10.00;17.50;;;;;;5042033;28;20477;-67
2023/04/13 07:47:03;;;;;;;7.37;1.37;;;10.00;17.80;;;;;;5046108;28;20478;-67
2023/04/13 07:49:30;;;;;;;6.10;1.70;;;9.90;18.10;;;;;;5041952;28;20494;-67
2023/04/13 07:51:58;;;;;;;6.73;1.00;;;9.90;18.40;;;;;;5047485;28;20469;-67
2023/04/13 07:54:25;;;;;;;5.93;0.80;;;10.00;18.10;;;;;;5035437;28;20525;-68
2023/04/13 07:56:52;;;;;;;8.17;1.83;;;10.00;17.70;;;;;;5045156;28;20451;-67
2023/04/13 07:59:20;;;;;;;5.83;1.47;;;10.00;17.90;;;;;;5038893;28;20479;-68
2023/04/13 08:01:46;;;;;;;6.37;1.67;;;10.10;17.70;;;;;;5040129;28;20481;-67
2023/04/13 08:04:13;;;;;;;6.10;1.47;;;10.20;17.40;;;;;;5039236;28;20481;-68
2023/04/13 08:06:40;;;;;;;8.30;1.47;;;10.30;17.30;;;;;;5047493;28;20470;-67
2023/04/13 08:09:08;;;;;;;6.90;1.40;;;10.70;17.50;;;;;;5043257;28;20566;-67
2023/04/13 08:11:35;;;;;;;7.20;1.13;;;11.20;16.60;;;;;;5047222;28;21033;-67
2023/04/13 08:14:01;;;;;;;8.63;1.27;;;11.40;15.20;;;;;;5044312;28;20476;-68
2023/04/13 08:16:33;;;;;;;5.87;1.10;;;11.70;15.20;;;;;;5048249;28;20978;-68
2023/04/13 08:19:00;;;;;;;13.03;1.77;;;12.20;14.70;;;;;;5044248;28;20560;-68
2023/04/13 08:21:28;;;;;;;4.00;1.00;;;12.80;13.00;;;;;;5046657;28;20462;-68
2023/04/13 08:23:55;;;;;;;4.20;0.90;;;14.00;11.90;;;;;;5044154;28;20488;-67
2023/04/13 08:26:23;;;;;;;5.07;1.10;;;15.30;8.50;;;;;;5046909;28;21024;-67
2023/04/13 08:28:51;;;;;;;8.63;1.80;;;16.00;6.70;;;;;;5047312;28;20485;-68
2023/04/13 08:31:19;;;;;;;5.60;1.23;;;16.20;6.10;;;;;;5046210;28;20566;-68
2023/04/13 08:33:47;;;;;;;6.10;1.07;;;16.80;6.10;;;;;;5039056;28;20458;-68
2023/04/13 08:36:16;;;;;;;7.50;1.63;;;18.30;3.60;;;;;;5047570;28;20494;-68
2023/04/13 08:38:42;;;;;;;6.60;1.30;;;20.00;1.00;;;;;;5038858;28;20477;-68
2023/04/13 08:41:10;;;;;;;6.47;1.07;;;21.50;1.00;;;;;;5042104;28;20536;-68
2023/04/13 08:43:36;;;;;;;5.60;1.20;;;21.20;1.00;;;;;;5045385;28;21100;-68
2023/04/13 08:46:04;;;;;;;10.27;1.90;;;20.30;1.00;;;;;;5044902;28;20493;-68
2023/04/13 08:48:32;;;;;;;7.90;1.80;;;19.90;1.00;;;;;;5047095;28;20493;-68
2023/04/13 08:51:01;;;;;;;5.90;1.10;;;19.80;1.00;;;;;;5040002;28;20481;-68
2023/04/13 08:53:28;;;;;;;6.57;1.37;;;19.80;1.00;;;;;;5044215;28;20871;-68
2023/04/13 08:55:57;;;;;;;5.63;1.00;;;20.10;1.00;;;;;;5045465;28;20958;-68
2023/04/13 08:58:25;;;;;;;8.70;1.30;;;19.60;1.00;;;;;;5045480;28;20458;-68
2023/04/13 09:00:52;;;;;;;8.73;1.50;;;18.90;1.00;;;;;;5043210;28;20458;-68
2023/04/13 09:03:23;;;;;;;6.00;1.50;;;18.60;1.00;;;;;;5036602;28;20472;-67
2023/04/13 09:05:55;;;;;;;7.20;1.27;;;18.40;1.00;;;;;;5042343;28;20485;-68
2023/04/13 09:08:24;;;;;;;5.70;1.13;;;18.50;1.00;;;;;;5038272;28;20459;-68
2023/04/13 09:10:51;;;;;;;8.20;1.40;;;18.40;1.00;;;;;;5047439;28;20465;-67
2023/04/13 09:13:18;;;;;;;8.30;1.17;;;18.00;1.00;;;;;;5039808;28;20469;-68
2023/04/13 09:15:46;;;;;;;6.07;1.57;;;17.20;1.00;;;;;;5047542;28;20458;-68
2023/04/13 09:18:13;;;;;;;5.87;1.20;;;16.50;1.00;;;;;;5046681;28;21007;-67
2023/04/13 09:20:40;;;;;;;6.33;1.37;;;15.80;2.50;;;;;;5035652;28;20502;-67
2023/04/13 09:23:14;;;;;;;8.13;1.40;;;15.30;4.00;;;;;;5047398;28;20474;-67
2023/04/13 09:25:44;;;;;;;7.57;1.53;;;15.00;4.90;;;;;;5047495;28;20527;-67
2023/04/13 09:28:16;;;;;;;5.23;1.27;;;14.70;5.10;;;;;;5044738;28;20478;-67
2023/04/13 09:30:43;;;;;;;5.53;1.00;;;14.40;5.70;;;;;;5040048;28;20801;-67
2023/04/13 09:33:11;;;;;;;5.83;1.03;;;14.10;5.40;;;;;;5044550;28;20466;-68
2023/04/13 09:35:39;;;;;;;6.40;1.53;;;13.90;6.20;;;;;;5047154;28;21002;-67
2023/04/13 09:38:07;;;;;;;5.13;0.90;;;13.70;6.40;;;;;;5045793;28;20965;-67
2023/04/13 09:40:36;;;;;;;10.03;1.60;;;13.50;7.20;;;;;;5046817;28;20461;-67
2023/04/13 09:43:06;;;;;;;5.60;1.20;;;13.30;7.50;;;;;;5036815;28;20550;-68
2023/04/13 09:45:34;;;;;;;5.47;1.10;;;13.10;7.60;;;;;;5042874;28;20458;-67
2023/04/13 09:48:02;;;;;;;8.57;1.63;;;12.80;8.00;;;;;;5039708;28;20939;-67
2023/04/13 09:50:31;;;;;;;5.90;1.80;;;12.60;8.20;;;;;;5039898;28;20529;-68
2023/04/13 09:53:01;;;;;;;6.47;1.20;;;12.40;9.00;;;;;;5042987;28;20492;-68
2023/04/13 09:55:29;;;;;;;6.13;1.43;;;12.20;9.10;;;;;;5046563;28;20461;-68
2023/04/13 09:57:56;;;;;;;4.90;1.10;;;12.10;8.80;;;;;;5046177;28;20497;-68
2023/04/13 10:00:24;;;;;;;5.87;1.37;;;11.90;8.90;;;;;;5044251;28;21077;-68
2023/04/13 10:02:52;;;;;;;5.50;1.40;;;11.80;9.60;;;;;;5038865;28;20462;-67
2023/04/13 10:05:19;;;;;;;5.57;1.20;;;11.80;9.80;;;;;;5046270;28;20476;-67
2023/04/13 10:07:48;;;;;;;5.90;1.30;;;11.90;10.30;;;;;;5046019;28;20485;-67
2023/04/13 10:10:15;;;;;;;7.37;1.37;;;12.00;10.10;;;;;;5044190;28;20486;-67
2023/04/13 10:12:47;;;;;;;5.40;1.50;;;12.20;9.90;;;;;;5048762;28;20488;-68
2023/04/13 10:15:24;;;;;;;5.10;1.13;;;12.50;9.50;;;;;;5051063;28;20465;-68
2023/04/13 10:18:02;;;;;;;5.50;0.90;;;12.50;9.30;;;;;;5049496;28;20983;-67
2023/04/13 10:20:30;;;;;;;5.97;1.00;;;12.50;9.00;;;;;;5048089;28;20482;-67
2023/04/13 10:22:58;;;;;;;6.87;1.30;;;12.40;9.00;;;;;;5049121;28;20458;-67
2023/04/13 10:25:25;;;;;;;6.90;1.63;;;12.40;9.10;;;;;;5050463;28;20825;-68
2023/04/13 10:27:57;;;;;;;7.90;2.00;;;12.90;9.50;;;;;;5048972;28;20474;-67
2023/04/13 10:30:25;;;;;;;6.40;1.27;;;13.40;7.90;;;;;;5046598;28;20515;-68
2023/04/13 10:33:06;;;;;;;5.43;1.27;;;13.60;7.80;;;;;;5047150;28;20543;-68
2023/04/13 10:35:36;;;;;;;6.80;1.57;;;13.50;7.60;;;;;;5047369;28;20454;-68
2023/04/13 10:38:03;;;;;;;5.60;1.07;;;13.40;7.10;;;;;;5045381;28;20516;-67
2023/04/13 10:40:41;;;;;;;8.07;1.60;;;13.30;7.30;;;;;;5049431;28;20556;-67
2023/04/13 10:43:08;;;;;;;5.10;1.33;;;13.40;7.50;;;;;;5045981;28;20454;-67
2023/04/13 10:45:36;;;;;;;8.27;1.70;;;13.80;7.80;;;;;;5048740;28;20461;-68
2023/04/13 10:48:06;;;;;;;5.83;1.40;;;14.70;8.20;;;;;;5039617;28;20573;-68
2023/04/13 10:50:33;;;;;;;8.07;1.33;;;15.90;5.60;;;;;;5045400;28;20462;-68
2023/04/13 10:53:01;;;;;;;7.63;1.97;;;16.70;4.30;;;;;;5048950;28;20465;-68
2023/04/13 10:55:29;;;;;;;5.17;1.00;;;17.50;3.20;;;;;;5049546;28;20462;-68
2023/04/13 10:57:56;;;;;;;6.60;0.97;;;17.90;2.60;;;;;;5046384;28;20493;-68
2023/04/13 11:00:24;;;;;;;7.27;1.30;;;18.10;2.00;;;;;;5047837;28;21116;-68
2023/04/13 11:02:52;;;;;;;4.70;1.20;;;18.10;2.00;;;;;;5043476;28;20971;-68
2023/04/13 11:05:21;;;;;;;5.63;1.60;;;18.00;2.10;;;;;;5046662;28;20458;-68
2023/04/13 11:07:48;;;;;;;8.63;1.33;;;18.20;2.40;;;;;;5050619;28;21086;-68
2023/04/13 11:10:16;;;;;;;8.63;1.30;;;18.20;2.00;;;;;;5050926;28;21008;-68
2023/04/13 11:12:50;;;;;;;8.67;1.40;;;18.00;1.00;;;;;;5051502;28;20476;-68
2023/04/13 11:15:20;;;;;;;5.03;1.00;;;17.70;1.00;;;;;;5050525;28;20462;-68
2023/04/13 11:17:51;;;;;;;4.63;1.10;;;17.40;1.00;;;;;;5045619;28;20454;-68
2023/04/13 11:20:18;;;;;;;5.77;1.03;;;17.10;1.00;;;;;;5053652;28;20509;-68
2023/04/13 11:22:46;;;;;;;16.30;1.83;;;16.90;1.30;;;;;;5046395;28;20466;-67
2023/04/13 11:25:13;;;;;;;6.70;1.40;;;16.80;1.00;;;;;;5046240;28;20937;-68
2023/04/13 11:27:39;;;;;;;7.13;1.30;;;16.70;2.20;;;;;;5043782;28;20973;-68
2023/04/13 11:30:09;;;;;;;5.00;1.20;;;16.70;1.50;;;;;;5044362;28;20486;-67
2023/04/13 11:32:41;;;;;;;5.93;1.40;;;16.50;1.80;;;;;;5028777;28;20846;-67
2023/04/13 11:35:08;;;;;;;5.50;1.10;;;16.20;1.40;;;;;;5023065;28;21045;-67
2023/04/13 11:37:36;;;;;;;7.00;1.60;;;16.00;2.20;;;;;;5026983;28;20486;-67
2023/04/13 11:40:11;;;;;;;6.83;1.60;;;15.80;3.20;;;;;;5020588;28;20500;-67
2023/04/13 11:42:40;;;;;;;5.93;1.33;;;15.60;4.30;;;;;;5023639;28;20474;-67
2023/04/13 11:45:08;;;;;;;8.60;1.73;;;15.50;4.20;;;;;;5024317;28;20471;-67
2023/04/13 11:47:36;;;;;;;5.63;1.47;;;15.20;3.80;;;;;;5025583;28;20495;-67
2023/04/13 11:50:03;;;;;;;6.13;1.40;;;14.90;4.00;;;;;;5028247;28;20478;-67
2023/04/13 11:52:31;;;;;;;7.27;1.30;;;14.60;4.00;;;;;;5027722;28;20873;-66
2023/04/13 11:54:58;;;;;;;7.03;1.77;;;14.30;4.90;;;;;;5028190;28;20482;-66
2023/04/13 11:57:27;;;;;;;5.70;1.20;;;14.20;5.60;;;;;;5024485;28;20963;-68
2023/04/13 11:59:54;;;;;;;11.87;2.07;;;13.90;5.70;;;;;;5025392;28;20562;-68
2023/04/13 12:02:25;;;;;;;8.03;1.77;;;13.80;6.00;;;;;;5025096;28;20481;-68
2023/04/13 12:04:52;;;;;;;5.77;1.27;;;13.70;5.80;;;;;;5040926;28;20489;-67
2023/04/13 12:07:19;;;;;;;6.30;1.20;;;13.60;5.90;;;;;;5048356;28;20478;-68
2023/04/13 12:09:47;;;;;;;6.10;1.63;;;13.40;6.10;;;;;;5046254;28;20482;-68
2023/04/13 12:12:16;;;;;;;7.97;2.07;;;13.30;6.30;;;;;;5050339;28;20462;-68
2023/04/13 12:14:51;;;;;;;7.83;1.53;;;13.30;6.70;;;;;;5052126;28;20471;-67
2023/04/13 12:17:17;;;;;;;6.43;1.90;;;13.20;6.60;;;;;;5049339;28;20971;-67
2023/04/13 12:19:44;;;;;;;10.33;1.50;;;13.20;7.40;;;;;;5048730;28;20490;-68
2023/04/13 12:22:12;;;;;;;8.77;1.60;;;13.30;7.60;;;;;;5045211;28;20990;-67
2023/04/13 12:24:39;;;;;;;5.50;1.30;;;13.30;7.60;;;;;;5043108;28;21168;-67
2023/04/13 12:27:06;;;;;;;11.83;3.17;;;13.40;7.30;;;;;;5047268;28;20487;-68
2023/04/13 12:29:38;;;;;;;5.03;1.77;;;13.50;7.60;;;;;;5047498;28;20493;-68
2023/04/13 12:32:12;;;;;;;5.70;1.13;;;13.60;7.60;;;;;;5044281;28;20473;-68
2023/04/13 12:34:39;;;;;;;5.50;1.00;;;13.60;6.90;;;;;;5043284;28;20458;-68
2023/04/13 12:37:06;;;;;;;8.93;2.17;;;13.70;6.30;;;;;;5045141;28;20465;-68
2023/04/13 12:39:33;;;;;;;8.23;1.90;;;13.70;6.60;;;;;;5042541;28;20521;-68
2023/04/13 12:42:01;;;;;;;8.67;1.90;;;13.70;6.30;;;;;;5050807;28;20454;-68
2023/04/13 12:44:28;;;;;;;5.47;1.73;;;13.80;6.50;;;;;;5039342;28;20459;-68
2023/04/13 12:46:54;;;;;;;6.60;1.50;;;13.90;6.60;;;;;;5047473;28;20485;-67
2023/04/13 12:49:22;;;;;;;8.50;1.53;;;13.80;5.90;;;;;;5037510;28;20483;-68
2023/04/13 12:51:49;;;;;;;10.07;1.73;;;13.70;5.70;;;;;;5051587;28;20477;-67
2023/04/13 12:54:16;;;;;;;5.50;0.90;;;13.70;6.80;;;;;;5038073;28;20963;-68
2023/04/13 12:56:43;;;;;;;5.43;1.30;;;13.60;7.00;;;;;;5046662;28;20464;-67
2023/04/13 12:59:10;;;;;;;4.50;1.30;;;13.60;7.30;;;;;;5048288;28;21017;-68
2023/04/13 13:01:37;;;;;;;4.73;1.23;;;13.50;7.10;;;;;;5048265;28;20466;-68